Time;durP1;ratioP1;P1;durP2;ratioP2;P2;SDS_P1;SDS_P2;PMS_P1;PMS_P2;Temp;Humidity;BMP_temperature;BMP_pressure;BME280_temperature;BME280_humidity;BME280_pressure;Samples;Min_cycle;Max_cycle;Signal;HPM_P1;HPM_P2
2021/05/10 00:01:27;;;;;;;7.07;4.93;;;18.00;83.50;;;;;;4999137;28;20081;-90
2021/05/10 00:03:52;;;;;;;7.47;4.88;;;18.00;83.60;;;;;;4993425;28;20038;-89
2021/05/10 00:06:18;;;;;;;9.48;4.97;;;18.00;83.80;;;;;;5011806;28;20139;-89
2021/05/10 00:08:44;;;;;;;9.38;5.45;;;18.00;83.90;;;;;;4987530;28;20478;-90
2021/05/10 00:11:10;;;;;;;8.38;5.43;;;17.90;84.00;;;;;;4991022;28;20099;-89
2021/05/10 00:13:38;;;;;;;6.00;5.40;;;17.90;84.30;;;;;;4993544;28;20454;-89
2021/05/10 00:16:04;;;;;;;6.68;5.15;;;17.80;84.40;;;;;;5000236;28;20038;-90
2021/05/10 00:18:29;;;;;;;5.93;5.13;;;17.80;84.60;;;;;;4987472;28;20027;-89
2021/05/10 00:20:55;;;;;;;8.48;5.93;;;17.80;84.80;;;;;;4988103;28;20026;-89
2021/05/10 00:23:20;;;;;;;9.07;6.45;;;17.70;84.90;;;;;;5010489;28;20045;-90
2021/05/10 00:25:46;;;;;;;10.65;7.40;;;17.70;85.10;;;;;;4991998;28;20109;-89
2021/05/10 00:28:12;;;;;;;9.55;6.45;;;17.60;85.10;;;;;;5003654;28;20029;-89
2021/05/10 00:30:38;;;;;;;6.85;6.07;;;17.60;85.20;;;;;;5003781;28;20513;-89
2021/05/10 00:33:04;;;;;;;7.70;6.35;;;17.60;85.30;;;;;;5013993;28;20036;-89
2021/05/10 00:35:30;;;;;;;7.05;5.93;;;17.50;85.50;;;;;;5001756;28;20385;-89
2021/05/10 00:37:56;;;;;;;6.97;5.95;;;17.50;85.70;;;;;;4987621;28;20117;-89
2021/05/10 00:40:24;;;;;;;6.82;5.13;;;17.50;85.80;;;;;;4989629;28;20050;-89
2021/05/10 00:42:50;;;;;;;6.05;4.95;;;17.50;86.10;;;;;;5009203;28;20056;-89
2021/05/10 00:45:16;;;;;;;6.38;4.65;;;17.40;86.30;;;;;;4991594;28;20113;-90
2021/05/10 00:47:43;;;;;;;7.90;5.00;;;17.30;86.60;;;;;;4988262;28;20512;-89
2021/05/10 00:50:09;;;;;;;5.93;4.70;;;17.30;86.90;;;;;;5009001;28;20026;-89
2021/05/10 00:52:35;;;;;;;5.65;4.70;;;17.20;87.20;;;;;;5000437;28;20022;-89
2021/05/10 00:55:01;;;;;;;7.63;4.85;;;17.10;87.50;;;;;;5000776;28;20476;-89
2021/05/10 00:57:36;;;;;;;7.35;5.70;;;17.10;87.60;;;;;;4998948;28;20584;-89
2021/05/10 01:00:02;;;;;;;6.70;4.50;;;17.00;87.70;;;;;;5014351;28;20034;-89
2021/05/10 01:02:28;;;;;;;7.05;4.75;;;17.00;87.80;;;;;;4998902;28;20042;-89
2021/05/10 01:04:54;;;;;;;5.70;4.82;;;17.00;87.90;;;;;;5000163;28;20046;-89
2021/05/10 01:07:19;;;;;;;8.27;5.82;;;17.00;87.90;;;;;;4987029;28;20028;-89
2021/05/10 01:09:45;;;;;;;12.07;6.50;;;17.00;88.00;;;;;;4988764;28;20033;-90
2021/05/10 01:12:11;;;;;;;8.00;5.40;;;17.00;88.10;;;;;;4989004;28;20127;-89
2021/05/10 01:14:36;;;;;;;10.35;6.75;;;17.10;88.30;;;;;;5004008;28;20454;-89
2021/05/10 01:17:03;;;;;;;6.03;5.43;;;17.10;88.50;;;;;;4986268;28;20030;-89
2021/05/10 01:19:29;;;;;;;8.50;7.20;;;17.10;88.60;;;;;;4993338;28;20100;-89
2021/05/10 01:21:58;;;;;;;10.05;7.18;;;17.00;88.60;;;;;;5002702;28;20088;-89
2021/05/10 01:24:25;;;;;;;6.95;6.28;;;16.90;88.80;;;;;;4986492;28;20034;-89
2021/05/10 01:26:51;;;;;;;7.72;6.18;;;16.80;88.90;;;;;;4988455;28;20092;-89
2021/05/10 01:29:17;;;;;;;11.07;6.93;;;16.70;89.20;;;;;;5003774;28;20059;-89
2021/05/10 01:31:43;;;;;;;7.80;6.10;;;16.70;89.60;;;;;;5006582;28;20277;-89
2021/05/10 01:34:09;;;;;;;5.75;4.53;;;16.70;89.70;;;;;;4994893;28;20030;-89
2021/05/10 01:36:34;;;;;;;8.10;6.53;;;16.70;89.30;;;;;;4998040;28;20034;-89
2021/05/10 01:39:00;;;;;;;6.32;5.45;;;16.80;89.50;;;;;;4991356;28;20035;-89
2021/05/10 01:41:25;;;;;;;8.65;6.85;;;16.80;89.30;;;;;;5003060;28;20136;-89
2021/05/10 01:43:51;;;;;;;7.65;5.30;;;16.80;89.30;;;;;;4988780;28;20497;-88
2021/05/10 01:46:16;;;;;;;6.93;5.82;;;16.80;89.80;;;;;;4986422;28;20069;-89
2021/05/10 01:48:42;;;;;;;8.38;6.20;;;16.80;89.20;;;;;;5002934;28;20023;-89
2021/05/10 01:51:08;;;;;;;7.05;6.30;;;16.80;89.20;;;;;;4989166;28;20091;-89
2021/05/10 01:53:34;;;;;;;8.93;5.13;;;16.70;89.20;;;;;;5015278;28;20031;-89
2021/05/10 01:56:00;;;;;;;8.60;5.93;;;16.70;89.20;;;;;;4995221;28;20031;-88
2021/05/10 01:58:25;;;;;;;6.25;3.95;;;16.70;89.10;;;;;;4987307;28;20046;-89
2021/05/10 02:00:51;;;;;;;10.45;3.47;;;16.80;88.50;;;;;;4987545;28;20026;-89
2021/05/10 02:03:19;;;;;;;5.03;4.00;;;16.90;87.80;;;;;;4988688;28;20478;-90
2021/05/10 02:05:47;;;;;;;5.30;3.95;;;17.00;87.70;;;;;;4990098;28;20557;-89
2021/05/10 02:08:13;;;;;;;5.78;4.40;;;17.00;87.30;;;;;;4988828;28;20026;-89
2021/05/10 02:10:41;;;;;;;8.10;5.60;;;17.00;87.40;;;;;;5016297;28;20046;-89
2021/05/10 02:13:14;;;;;;;3.65;3.33;;;17.00;87.40;;;;;;5004488;28;20022;-88
2021/05/10 02:15:45;;;;;;;5.40;3.67;;;17.00;87.20;;;;;;4991432;28;20042;-89
2021/05/10 02:18:12;;;;;;;7.00;3.05;;;17.00;87.10;;;;;;4993468;28;20033;-89
2021/05/10 02:20:39;;;;;;;3.97;3.15;;;16.90;87.10;;;;;;5023454;28;20023;-88
2021/05/10 02:23:11;;;;;;;5.15;3.42;;;16.90;87.30;;;;;;4997404;28;20136;-89
2021/05/10 02:25:38;;;;;;;4.10;3.22;;;16.80;87.50;;;;;;5000549;28;20022;-88
2021/05/10 02:28:05;;;;;;;3.95;3.55;;;16.70;87.60;;;;;;4988746;28;20035;-88
2021/05/10 02:30:33;;;;;;;4.78;3.20;;;16.70;87.80;;;;;;5011962;28;20160;-88
2021/05/10 02:33:00;;;;;;;4.38;3.50;;;16.70;87.90;;;;;;4990826;28;20037;-88
2021/05/10 02:35:26;;;;;;;6.30;3.25;;;16.70;88.20;;;;;;5002808;28;20057;-89
2021/05/10 02:37:52;;;;;;;7.30;3.05;;;16.60;88.40;;;;;;5019484;28;20020;-89
2021/05/10 02:40:19;;;;;;;5.95;3.30;;;16.50;88.60;;;;;;4996418;28;20034;-90
2021/05/10 02:42:45;;;;;;;4.45;2.70;;;16.50;88.70;;;;;;4989244;28;20061;-88
2021/05/10 02:45:12;;;;;;;3.90;3.08;;;16.50;88.80;;;;;;4998337;28;20026;-88
2021/05/10 02:47:39;;;;;;;4.70;2.47;;;16.50;88.80;;;;;;4989179;28;20030;-88
2021/05/10 02:50:12;;;;;;;4.10;3.17;;;16.50;88.70;;;;;;5000842;28;20231;-87
2021/05/10 02:52:37;;;;;;;4.68;3.30;;;16.50;88.30;;;;;;4989140;28;20054;-88
2021/05/10 02:55:04;;;;;;;5.28;3.05;;;16.60;88.20;;;;;;5002009;28;20500;-88
2021/05/10 02:57:30;;;;;;;5.70;2.58;;;16.50;87.90;;;;;;5001724;28;20027;-88
2021/05/10 02:59:55;;;;;;;6.38;3.00;;;16.60;87.50;;;;;;4988731;28;20023;-88
2021/05/10 03:02:21;;;;;;;3.72;3.15;;;16.70;87.10;;;;;;5017277;28;20042;-88
2021/05/10 03:04:47;;;;;;;4.00;2.63;;;16.70;86.50;;;;;;5002514;28;20078;-88
2021/05/10 03:07:13;;;;;;;4.95;2.55;;;16.90;86.10;;;;;;4999239;28;20030;-87
2021/05/10 03:09:38;;;;;;;3.10;2.20;;;17.00;85.50;;;;;;4997297;28;20049;-86
2021/05/10 03:12:04;;;;;;;5.43;1.42;;;17.10;85.10;;;;;;4987921;28;20023;-88
2021/05/10 03:14:30;;;;;;;2.50;1.10;;;17.10;84.10;;;;;;4994876;28;20075;-88
2021/05/10 03:16:55;;;;;;;2.60;0.90;;;17.20;83.00;;;;;;4991883;28;20026;-87
2021/05/10 03:19:21;;;;;;;2.05;0.70;;;17.40;81.90;;;;;;5001153;28;20019;-88
2021/05/10 03:21:47;;;;;;;4.72;0.60;;;17.50;80.80;;;;;;4991616;28;20059;-88
2021/05/10 03:24:13;;;;;;;2.38;0.60;;;17.70;79.40;;;;;;5009379;28;20049;-88
2021/05/10 03:26:39;;;;;;;1.58;0.40;;;17.80;78.30;;;;;;5022758;28;20026;-88
2021/05/10 03:29:06;;;;;;;3.63;0.70;;;17.90;77.60;;;;;;4986457;28;20113;-88
2021/05/10 03:31:32;;;;;;;3.50;0.70;;;18.00;77.00;;;;;;5002655;28;20028;-88
2021/05/10 03:33:59;;;;;;;3.92;0.40;;;18.00;76.90;;;;;;4986918;28;20034;-88
2021/05/10 03:36:24;;;;;;;4.53;0.63;;;18.10;75.30;;;;;;4985286;28;20033;-88
2021/05/10 03:38:50;;;;;;;2.63;0.47;;;18.20;74.40;;;;;;5001984;28;20022;-88
2021/05/10 03:41:16;;;;;;;1.63;0.50;;;18.30;73.00;;;;;;4988920;28;20040;-88
2021/05/10 03:43:41;;;;;;;1.63;0.50;;;18.40;72.10;;;;;;5003649;28;20482;-89
2021/05/10 03:46:07;;;;;;;3.00;0.40;;;18.50;71.40;;;;;;5003037;28;20025;-89
2021/05/10 03:48:32;;;;;;;2.58;0.45;;;18.60;70.80;;;;;;4985394;28;20037;-89
2021/05/10 03:50:58;;;;;;;4.38;0.63;;;18.60;70.20;;;;;;4988776;28;20030;-88
2021/05/10 03:53:23;;;;;;;2.38;0.47;;;18.70;69.70;;;;;;5015265;28;20733;-88
2021/05/10 03:55:50;;;;;;;2.03;0.40;;;18.70;69.40;;;;;;4988179;28;20023;-88
2021/05/10 03:58:16;;;;;;;2.58;1.02;;;18.80;69.30;;;;;;4993839;28;20037;-89
2021/05/10 04:00:42;;;;;;;1.30;0.30;;;18.80;68.90;;;;;;4986503;28;20019;-89
2021/05/10 04:03:10;;;;;;;3.53;0.30;;;18.70;69.00;;;;;;5003479;28;20069;-89
2021/05/10 04:05:48;;;;;;;1.70;0.40;;;18.80;68.50;;;;;;5011380;28;20065;-90
2021/05/10 04:13:43;;;;;;;2.70;0.35;;;18.90;67.40;;;;;;5009622;28;20135;-89
2021/05/10 04:16:08;;;;;;;2.33;0.50;;;19.00;67.00;;;;;;5019210;28;20395;-89
2021/05/10 04:18:34;;;;;;;1.85;0.40;;;19.00;66.30;;;;;;5011371;28;20041;-89
2021/05/10 04:21:00;;;;;;;1.17;0.30;;;19.10;65.90;;;;;;5004585;28;20106;-89
2021/05/10 04:23:27;;;;;;;2.92;0.40;;;19.10;65.70;;;;;;5029485;28;20038;-89
2021/05/10 04:25:53;;;;;;;1.83;0.40;;;19.20;65.80;;;;;;5030747;28;20027;-90
2021/05/10 04:28:20;;;;;;;4.05;0.55;;;19.20;65.50;;;;;;5070891;28;20053;-89
2021/05/10 04:30:47;;;;;;;2.15;0.43;;;19.20;65.20;;;;;;4988155;28;20025;-89
2021/05/10 04:33:12;;;;;;;2.38;0.47;;;19.20;64.90;;;;;;5043916;28;20020;-89
2021/05/10 04:35:38;;;;;;;2.60;0.43;;;19.30;64.90;;;;;;5018576;28;20019;-88
2021/05/10 04:38:09;;;;;;;3.58;0.40;;;19.30;64.80;;;;;;5034478;28;20088;-89
2021/05/10 04:40:39;;;;;;;5.35;0.40;;;19.30;64.50;;;;;;5037503;28;21614;-89
2021/05/10 04:43:05;;;;;;;3.88;0.50;;;19.40;64.40;;;;;;5015343;28;20136;-89
2021/05/10 04:45:31;;;;;;;3.45;0.30;;;19.40;63.80;;;;;;5019740;28;20471;-89
2021/05/10 04:47:57;;;;;;;3.80;0.40;;;19.40;63.80;;;;;;5037459;28;20046;-89
2021/05/10 04:50:22;;;;;;;3.33;0.47;;;19.50;63.30;;;;;;5036148;28;20058;-90
2021/05/10 04:52:48;;;;;;;0.90;0.30;;;19.60;63.30;;;;;;5001857;28;20030;-89
2021/05/10 04:55:14;;;;;;;2.40;0.30;;;19.70;63.20;;;;;;5017336;28;20062;-89
2021/05/10 04:57:40;;;;;;;1.73;0.40;;;19.70;64.20;;;;;;4985920;28;20025;-90
2021/05/10 05:00:11;;;;;;;2.90;0.50;;;19.70;64.00;;;;;;4986055;28;20340;-90
2021/05/10 05:02:36;;;;;;;2.50;0.70;;;19.60;64.20;;;;;;4985982;28;20458;-90
2021/05/10 05:05:04;;;;;;;5.63;0.32;;;19.60;64.60;;;;;;4990512;28;20050;-89
2021/05/10 05:07:30;;;;;;;4.72;0.38;;;19.60;65.00;;;;;;5000374;28;20026;-88
2021/05/10 05:09:55;;;;;;;2.50;0.55;;;19.60;65.10;;;;;;4985465;28;20402;-89
2021/05/10 05:12:21;;;;;;;6.28;0.50;;;19.50;65.50;;;;;;4988267;28;20029;-89
2021/05/10 05:14:46;;;;;;;3.92;0.40;;;19.50;65.70;;;;;;4989736;28;20027;-88
2021/05/10 05:17:12;;;;;;;5.63;0.50;;;19.50;66.20;;;;;;4988966;28;20470;-88
2021/05/10 05:19:37;;;;;;;2.65;0.43;;;19.40;67.00;;;;;;4988895;28;20615;-89
2021/05/10 05:22:03;;;;;;;4.25;0.47;;;19.30;67.70;;;;;;4987629;28;20032;-88
2021/05/10 05:24:29;;;;;;;7.35;0.65;;;19.20;68.50;;;;;;4989271;28;20394;-89
2021/05/10 05:26:54;;;;;;;5.35;0.50;;;19.10;69.10;;;;;;4985589;28;20482;-89
2021/05/10 05:29:22;;;;;;;4.43;0.60;;;19.00;69.60;;;;;;4986868;28;20033;-88
2021/05/10 05:31:50;;;;;;;1.17;0.40;;;18.90;70.30;;;;;;4984213;28;20034;-90
2021/05/10 05:34:16;;;;;;;3.35;0.50;;;18.80;71.00;;;;;;4990167;28;20031;-88
2021/05/10 05:36:42;;;;;;;6.50;0.80;;;18.70;71.40;;;;;;5010855;28;20031;-88
2021/05/10 05:39:08;;;;;;;2.90;1.00;;;18.60;71.90;;;;;;4991097;28;20026;-90
2021/05/10 05:41:34;;;;;;;3.65;0.47;;;18.60;72.30;;;;;;4984151;28;20121;-90
2021/05/10 05:44:00;;;;;;;3.50;0.57;;;18.50;72.50;;;;;;4983892;28;20133;-90
2021/05/10 05:46:26;;;;;;;3.03;0.50;;;18.50;73.10;;;;;;4988010;28;20162;-91
2021/05/10 05:48:52;;;;;;;1.23;0.75;;;18.50;73.30;;;;;;4986670;28;20027;-89
2021/05/10 05:51:18;;;;;;;3.63;0.52;;;18.50;73.30;;;;;;4991648;28;20029;-90
2021/05/10 05:53:43;;;;;;;2.47;0.40;;;18.50;73.40;;;;;;4990174;28;20035;-90
2021/05/10 05:56:09;;;;;;;3.25;0.40;;;18.50;73.50;;;;;;4983969;28;20065;-88
2021/05/10 05:58:35;;;;;;;0.90;0.45;;;18.50;73.50;;;;;;4986312;28;20030;-88
2021/05/10 06:01:00;;;;;;;1.05;0.30;;;18.50;73.60;;;;;;4986003;28;20031;-89
2021/05/10 06:03:26;;;;;;;3.63;0.40;;;18.50;72.40;;;;;;5002671;28;20038;-88
2021/05/10 06:05:51;;;;;;;1.20;0.17;;;18.50;72.40;;;;;;4983834;28;20094;-89
2021/05/10 06:08:17;;;;;;;4.53;0.32;;;18.50;71.80;;;;;;4980522;28;20030;-90
2021/05/10 06:10:43;;;;;;;1.52;0.10;;;18.50;71.20;;;;;;4988123;28;20612;-90
2021/05/10 06:13:12;;;;;;;0.65;0.10;;;18.50;71.00;;;;;;4981569;28;20054;-89
2021/05/10 06:15:37;;;;;;;1.27;0.10;;;18.50;70.40;;;;;;4979785;28;20037;-89
2021/05/10 06:18:06;;;;;;;0.73;0.10;;;18.60;70.40;;;;;;4999121;28;20019;-89
2021/05/10 06:20:31;;;;;;;0.73;0.15;;;18.70;70.50;;;;;;5019957;28;20020;-90
2021/05/10 06:22:57;;;;;;;0.80;0.10;;;18.70;70.10;;;;;;4986211;28;20053;-88
2021/05/10 06:25:23;;;;;;;2.03;0.10;;;18.80;69.80;;;;;;5013607;28;20031;-90
2021/05/10 06:27:48;;;;;;;0.45;0.10;;;18.80;69.90;;;;;;5030091;28;20037;-88
2021/05/10 06:30:14;;;;;;;1.90;0.10;;;19.00;69.90;;;;;;4990565;28;20026;-87
2021/05/10 06:32:40;;;;;;;1.33;0.10;;;19.10;69.50;;;;;;5038330;28;20026;-88
2021/05/10 06:35:07;;;;;;;1.17;0.10;;;19.10;69.80;;;;;;4993310;28;20473;-89
2021/05/10 06:37:34;;;;;;;1.15;0.10;;;19.40;70.10;;;;;;4979545;28;20030;-87
2021/05/10 06:40:00;;;;;;;1.90;0.10;;;19.60;68.90;;;;;;4986108;28;20053;-89
2021/05/10 06:42:27;;;;;;;1.23;0.10;;;19.70;67.40;;;;;;4980400;28;20494;-89
2021/05/10 06:44:54;;;;;;;0.40;0.20;;;19.70;67.40;;;;;;4983942;28;20630;-88
2021/05/10 06:47:20;;;;;;;1.42;0.10;;;19.70;67.30;;;;;;4990842;28;20058;-88
2021/05/10 06:49:45;;;;;;;1.55;0.10;;;19.60;67.70;;;;;;4978658;28;20080;-89
2021/05/10 06:52:11;;;;;;;0.15;0.10;;;19.50;67.90;;;;;;4979539;28;20018;-89
2021/05/10 06:54:37;;;;;;;0.95;0.10;;;19.60;67.90;;;;;;4980083;28;20121;-87
2021/05/10 06:57:03;;;;;;;0.47;0.10;;;19.50;68.00;;;;;;4980015;28;20050;-86
2021/05/10 06:59:28;;;;;;;0.45;0.17;;;19.50;68.20;;;;;;4982067;28;20037;-89
2021/05/10 07:01:54;;;;;;;0.95;0.10;;;19.50;68.10;;;;;;4977462;28;20406;-87
2021/05/10 07:04:19;;;;;;;1.00;0.22;;;19.40;68.30;;;;;;4979618;28;20054;-87
2021/05/10 07:06:45;;;;;;;0.47;0.13;;;19.30;68.00;;;;;;4986983;28;20025;-88
2021/05/10 07:09:11;;;;;;;0.45;0.20;;;19.40;68.40;;;;;;4982538;28;20034;-88
2021/05/10 07:11:37;;;;;;;3.55;0.22;;;19.40;68.40;;;;;;4984284;28;20022;-88
2021/05/10 07:14:03;;;;;;;1.58;0.30;;;19.30;68.00;;;;;;4987527;28;20037;-87
2021/05/10 07:16:29;;;;;;;1.42;0.30;;;19.30;68.30;;;;;;4987047;28;20026;-90
2021/05/10 07:18:55;;;;;;;0.98;0.30;;;19.30;68.00;;;;;;4988443;28;20036;-89
2021/05/10 07:21:22;;;;;;;2.42;0.30;;;19.30;67.80;;;;;;4982955;28;20125;-90
2021/05/10 07:23:48;;;;;;;4.20;0.30;;;19.40;68.10;;;;;;4982811;28;20042;-89
2021/05/10 07:26:13;;;;;;;3.95;0.40;;;19.40;68.30;;;;;;4983208;28;20022;-90
2021/05/10 07:28:39;;;;;;;0.85;0.20;;;19.50;67.70;;;;;;4982915;28;20121;-90
2021/05/10 07:31:04;;;;;;;1.85;0.30;;;19.60;67.70;;;;;;4998039;28;20124;-89
2021/05/10 07:33:30;;;;;;;2.28;0.28;;;19.60;67.80;;;;;;4978343;28;20405;-89
2021/05/10 07:35:55;;;;;;;2.90;0.30;;;19.60;67.70;;;;;;4977101;28;20041;-90
2021/05/10 07:38:21;;;;;;;2.78;0.40;;;19.60;68.20;;;;;;4981077;28;20029;-88
2021/05/10 07:40:47;;;;;;;1.70;0.30;;;19.50;68.40;;;;;;4981903;28;20095;-90
2021/05/10 07:43:12;;;;;;;2.70;0.30;;;19.50;68.80;;;;;;4983749;28;20079;-89
2021/05/10 07:45:38;;;;;;;1.25;0.30;;;19.40;69.30;;;;;;4982435;28;20053;-88
2021/05/10 07:48:04;;;;;;;1.08;0.30;;;19.40;69.30;;;;;;4984449;28;20058;-88
2021/05/10 07:50:30;;;;;;;2.00;0.38;;;19.30;69.30;;;;;;4981932;28;20587;-88
2021/05/10 07:52:56;;;;;;;2.67;0.38;;;19.30;69.30;;;;;;4980550;28;20121;-88
2021/05/10 07:55:23;;;;;;;0.68;0.30;;;19.10;69.50;;;;;;4981286;28;20398;-90
2021/05/10 07:57:49;;;;;;;1.65;0.20;;;18.90;69.80;;;;;;4981526;28;20027;-89
2021/05/10 08:00:20;;;;;;;1.20;0.30;;;18.70;70.70;;;;;;4980956;28;20157;-89
2021/05/10 08:02:48;;;;;;;1.48;0.32;;;18.50;71.50;;;;;;4981714;28;20062;-89
2021/05/10 08:05:14;;;;;;;0.90;0.30;;;18.50;71.90;;;;;;4980726;28;20502;-90
2021/05/10 08:07:40;;;;;;;1.95;0.50;;;18.50;72.10;;;;;;4982792;28;20065;-89
2021/05/10 08:10:08;;;;;;;1.52;0.30;;;18.60;72.20;;;;;;4980117;28;20031;-90
2021/05/10 08:12:34;;;;;;;0.90;0.30;;;18.60;72.20;;;;;;4984113;28;20030;-89
2021/05/10 08:15:00;;;;;;;1.60;0.30;;;18.50;72.00;;;;;;4981700;28;20217;-91
2021/05/10 08:17:26;;;;;;;2.28;0.40;;;18.40;72.40;;;;;;4999476;28;20102;-92
2021/05/10 08:19:52;;;;;;;1.83;0.30;;;18.30;73.50;;;;;;4985096;28;20052;-89
2021/05/10 08:22:18;;;;;;;1.40;0.50;;;18.10;76.00;;;;;;4985292;28;20042;-91
2021/05/10 08:24:43;;;;;;;1.98;0.40;;;17.70;78.60;;;;;;4983922;28;20116;-88
2021/05/10 08:27:09;;;;;;;1.17;0.40;;;17.50;80.60;;;;;;4983994;28;20904;-88
2021/05/10 08:29:35;;;;;;;0.82;0.40;;;17.60;81.40;;;;;;4979441;28;20037;-87
2021/05/10 08:32:01;;;;;;;1.35;0.40;;;17.70;81.90;;;;;;4980553;28;20563;-88
2021/05/10 08:34:27;;;;;;;3.00;0.40;;;17.80;81.90;;;;;;4980933;28;20029;-88
2021/05/10 08:36:54;;;;;;;3.42;0.60;;;18.00;81.60;;;;;;4982740;28;20030;-88
2021/05/10 08:39:20;;;;;;;1.92;0.40;;;18.20;80.50;;;;;;4998253;28;20023;-89
2021/05/10 08:41:46;;;;;;;1.92;0.40;;;18.20;79.40;;;;;;4995141;28;20500;-90
2021/05/10 08:44:12;;;;;;;2.45;0.40;;;18.30;79.00;;;;;;4982016;28;20030;-90
2021/05/10 08:46:40;;;;;;;0.80;0.35;;;18.30;78.00;;;;;;4999081;28;20031;-89
2021/05/10 08:49:06;;;;;;;1.42;0.43;;;18.30;77.70;;;;;;4984629;28;20030;-89
2021/05/10 08:51:37;;;;;;;1.40;0.40;;;18.30;77.10;;;;;;4979758;28;20022;-90
2021/05/10 08:54:14;;;;;;;1.23;0.47;;;18.30;76.70;;;;;;4979299;28;20034;-89
2021/05/10 08:56:40;;;;;;;2.25;0.50;;;18.30;76.20;;;;;;4994399;28;20119;-89
2021/05/10 08:59:05;;;;;;;2.13;0.50;;;18.30;75.70;;;;;;4977350;28;20068;-89
2021/05/10 09:01:46;;;;;;;1.65;0.40;;;18.30;75.90;;;;;;4979522;28;20562;-89
2021/05/10 09:04:11;;;;;;;1.23;0.40;;;18.30;75.50;;;;;;4978190;28;20059;-90
2021/05/10 09:06:37;;;;;;;1.60;0.52;;;18.10;74.60;;;;;;4980038;28;20026;-90
2021/05/10 09:09:08;;;;;;;3.17;0.45;;;18.10;74.40;;;;;;4979905;28;20172;-88
2021/05/10 09:11:35;;;;;;;1.20;0.50;;;18.10;74.90;;;;;;4975771;28;20038;-88
2021/05/10 09:14:01;;;;;;;1.33;0.50;;;18.10;74.70;;;;;;4978059;28;20030;-89
2021/05/10 09:16:27;;;;;;;1.63;0.50;;;18.10;74.40;;;;;;4981913;28;20026;-89
2021/05/10 09:18:54;;;;;;;1.33;0.60;;;18.10;74.10;;;;;;4982902;28;20026;-89
2021/05/10 09:21:23;;;;;;;1.02;0.50;;;18.20;73.80;;;;;;4983669;28;20031;-90
2021/05/10 09:23:49;;;;;;;2.80;0.57;;;18.20;74.10;;;;;;4980898;28;20224;-90
2021/05/10 09:26:27;;;;;;;1.70;0.77;;;18.30;74.20;;;;;;4980260;28;20030;-90
2021/05/10 09:28:56;;;;;;;1.10;0.57;;;18.40;73.80;;;;;;4978777;28;20129;-90
2021/05/10 09:31:21;;;;;;;1.35;0.50;;;18.30;72.90;;;;;;4984045;28;20056;-89
2021/05/10 09:33:48;;;;;;;1.05;0.40;;;18.30;72.80;;;;;;4981482;28;20023;-89
2021/05/10 09:36:36;;;;;;;1.92;0.60;;;18.40;73.10;;;;;;4983232;28;20034;-90
2021/05/10 09:39:05;;;;;;;0.75;0.38;;;18.40;73.00;;;;;;4987439;28;20470;-88
2021/05/10 09:41:31;;;;;;;1.42;0.52;;;18.50;73.40;;;;;;4983762;28;20485;-89
2021/05/10 09:44:05;;;;;;;1.70;0.60;;;18.60;73.60;;;;;;4983353;28;20054;-91
2021/05/10 09:46:41;;;;;;;2.08;0.55;;;18.70;73.60;;;;;;4985532;28;20026;-90
2021/05/10 09:49:08;;;;;;;2.05;0.60;;;18.60;74.20;;;;;;4986457;28;20053;-89
2021/05/10 09:51:34;;;;;;;1.52;0.57;;;18.50;74.90;;;;;;4984093;28;20041;-89
2021/05/10 09:54:09;;;;;;;2.70;0.60;;;18.50;75.40;;;;;;4981858;28;20061;-88
2021/05/10 09:56:35;;;;;;;2.90;0.65;;;18.50;75.70;;;;;;4988737;28;20086;-86
2021/05/10 09:59:04;;;;;;;5.20;0.90;;;18.50;75.70;;;;;;4986128;28;20144;-89
2021/05/10 10:01:49;;;;;;;1.92;0.50;;;18.60;75.70;;;;;;4983761;28;20117;-87
2021/05/10 10:04:17;;;;;;;1.63;0.80;;;18.70;75.20;;;;;;5001149;28;20090;-89
2021/05/10 10:06:45;;;;;;;1.20;0.70;;;18.60;74.80;;;;;;4984008;28;20027;-89
2021/05/10 10:09:10;;;;;;;1.40;0.52;;;18.50;74.90;;;;;;4986110;28;20094;-90
2021/05/10 10:11:36;;;;;;;2.42;0.70;;;18.30;75.30;;;;;;4986107;28;20558;-90
2021/05/10 10:14:03;;;;;;;1.67;0.80;;;18.30;75.90;;;;;;4990304;28;20046;-89
2021/05/10 10:16:32;;;;;;;3.28;0.73;;;18.40;76.20;;;;;;4988366;28;20035;-89
2021/05/10 10:19:03;;;;;;;2.00;0.50;;;18.50;75.40;;;;;;4989409;28;20045;-90
2021/05/10 10:21:29;;;;;;;2.75;0.60;;;18.60;75.20;;;;;;4984100;28;20034;-90
2021/05/10 10:24:05;;;;;;;3.15;0.75;;;18.80;75.00;;;;;;4987679;28;20433;-90
2021/05/10 10:26:33;;;;;;;1.80;0.73;;;18.90;74.40;;;;;;4988772;28;20030;-90
2021/05/10 10:29:09;;;;;;;4.47;0.73;;;19.10;73.80;;;;;;4982791;28;20034;-92
2021/05/10 10:31:46;;;;;;;3.25;0.70;;;19.20;73.40;;;;;;4988702;28;20172;-88
2021/05/10 10:34:18;;;;;;;2.55;0.50;;;19.40;73.30;;;;;;4990174;28;20394;-89
2021/05/10 10:36:47;;;;;;;;;;;19.70;72.70;;;;;;4985365;28;20024;-89
2021/05/10 10:39:14;;;;;;;3.65;0.60;;;19.70;71.00;;;;;;4985199;28;19910;-89
2021/05/10 10:42:02;;;;;;;2.05;0.70;;;19.50;70.70;;;;;;4980401;28;20027;-90
2021/05/10 10:44:34;;;;;;;1.98;0.70;;;19.30;71.00;;;;;;4981768;28;20038;-89
2021/05/10 10:47:00;;;;;;;3.75;0.60;;;19.10;71.90;;;;;;4983594;28;20084;-89
2021/05/10 10:49:45;;;;;;;3.15;0.80;;;19.10;72.60;;;;;;4988576;28;20388;-90
2021/05/10 10:52:22;;;;;;;3.38;1.02;;;19.10;73.00;;;;;;4997817;28;20023;-90
2021/05/10 10:55:16;;;;;;;1.75;0.70;;;18.90;73.80;;;;;;4985429;28;20023;-91
2021/05/10 10:57:42;;;;;;;2.15;0.60;;;18.80;74.30;;;;;;4994386;28;20458;-90
2021/05/10 11:00:09;;;;;;;2.20;0.93;;;18.80;74.70;;;;;;4981234;28;20113;-90
2021/05/10 11:02:46;;;;;;;2.00;0.90;;;18.70;74.60;;;;;;4981059;28;20144;-90
2021/05/10 11:05:23;;;;;;;2.35;1.42;;;18.40;74.30;;;;;;4979522;28;20052;-91
2021/05/10 11:08:00;;;;;;;4.78;1.77;;;17.90;75.30;;;;;;4981852;28;20050;-92
2021/05/10 11:10:48;;;;;;;4.03;1.80;;;17.40;76.70;;;;;;4984897;28;20113;-91
2021/05/10 11:13:29;;;;;;;3.45;2.65;;;16.90;78.70;;;;;;4989226;28;20057;-89
2021/05/10 11:16:06;;;;;;;3.83;2.67;;;16.50;80.90;;;;;;4990827;28;20375;-89
2021/05/10 11:18:56;;;;;;;5.88;3.25;;;16.10;82.70;;;;;;4986626;28;20034;-89
2021/05/10 11:21:25;;;;;;;7.72;2.95;;;15.80;84.20;;;;;;4985077;28;20755;-90
2021/05/10 11:24:02;;;;;;;3.70;2.88;;;15.60;85.70;;;;;;4989221;28;20070;-89
2021/05/10 11:26:52;;;;;;;4.25;2.35;;;15.40;86.80;;;;;;4987255;28;20034;-89
2021/05/10 11:29:27;;;;;;;4.20;2.63;;;15.40;87.30;;;;;;4988194;28;20126;-90
2021/05/10 11:31:58;;;;;;;2.58;2.08;;;15.50;88.00;;;;;;4995724;28;20109;-89
2021/05/10 11:34:36;;;;;;;5.05;2.88;;;15.70;88.10;;;;;;5000076;28;20036;-88
2021/05/10 11:37:03;;;;;;;3.10;2.80;;;15.80;87.90;;;;;;4983885;28;20106;-89
2021/05/10 11:39:31;;;;;;;4.72;2.60;;;16.00;88.20;;;;;;4988924;28;20508;-89
2021/05/10 11:42:05;;;;;;;3.90;2.05;;;16.10;87.70;;;;;;4999181;28;20033;-89
2021/05/10 11:44:35;;;;;;;3.13;2.67;;;16.10;87.40;;;;;;4997859;28;20125;-89
2021/05/10 11:47:11;;;;;;;6.25;2.92;;;16.20;87.40;;;;;;4986604;28;20054;-89
2021/05/10 11:49:42;;;;;;;2.80;2.50;;;16.40;87.70;;;;;;4997406;28;20030;-89
2021/05/10 11:52:18;;;;;;;2.95;2.33;;;16.60;87.40;;;;;;5001648;28;21901;-89
2021/05/10 11:54:52;;;;;;;4.18;1.92;;;17.00;87.10;;;;;;4985597;28;20475;-89
2021/05/10 11:57:27;;;;;;;1.92;1.05;;;17.40;86.40;;;;;;4985979;28;20045;-89
2021/05/10 12:02:30;;;;;;;3.25;1.90;;;18.10;84.10;;;;;;4990298;28;20038;-89
2021/05/10 12:05:00;;;;;;;2.05;1.85;;;18.40;84.00;;;;;;4989438;28;20104;-90
2021/05/10 12:07:29;;;;;;;2.20;1.92;;;18.60;83.00;;;;;;4989730;28;20023;-89
2021/05/10 12:10:01;;;;;;;2.75;1.40;;;18.80;81.30;;;;;;4989027;28;20109;-90
2021/05/10 12:12:37;;;;;;;2.28;1.50;;;18.90;80.80;;;;;;4987798;28;20120;-84
2021/05/10 12:15:14;;;;;;;4.05;1.60;;;19.00;80.40;;;;;;4985513;28;20030;-83
2021/05/10 12:17:44;;;;;;;1.95;1.38;;;19.00;80.00;;;;;;5000865;28;20034;-84
2021/05/10 12:20:22;;;;;;;3.08;1.80;;;19.00;79.60;;;;;;4991014;28;20106;-83
2021/05/10 12:22:51;;;;;;;3.80;2.38;;;19.10;78.20;;;;;;5012840;28;20034;-84
2021/05/10 12:25:27;;;;;;;2.90;2.00;;;18.90;78.30;;;;;;5019860;28;20024;-84
2021/05/10 12:28:08;;;;;;;3.47;2.10;;;18.90;78.40;;;;;;5004180;28;20115;-84
2021/05/10 12:30:37;;;;;;;4.50;2.30;;;19.00;77.80;;;;;;4985024;28;20030;-84
2021/05/10 12:33:08;;;;;;;3.35;1.80;;;19.10;77.50;;;;;;4988854;28;20027;-84
2021/05/10 12:35:38;;;;;;;7.47;3.20;;;19.20;77.50;;;;;;4988844;28;20117;-89
2021/05/10 12:38:04;;;;;;;3.28;2.60;;;19.30;76.90;;;;;;4989042;28;20027;-89
2021/05/10 12:40:41;;;;;;;3.53;2.08;;;19.40;76.40;;;;;;4988257;28;20536;-89
2021/05/10 12:43:16;;;;;;;3.88;2.20;;;19.60;75.70;;;;;;5023602;28;20039;-89
2021/05/10 12:46:03;;;;;;;4.03;1.88;;;19.70;75.60;;;;;;4988431;28;20517;-89
2021/05/10 12:48:39;;;;;;;3.63;2.30;;;19.80;74.90;;;;;;5013249;28;20038;-89
2021/05/10 12:51:12;;;;;;;5.63;2.00;;;19.90;74.30;;;;;;4995435;28;20029;-89
2021/05/10 12:53:45;;;;;;;2.67;2.22;;;19.80;74.00;;;;;;4991099;28;20117;-89
2021/05/10 12:56:12;;;;;;;2.70;1.70;;;19.80;73.90;;;;;;4989940;28;20065;-89
2021/05/10 12:58:46;;;;;;;2.55;2.13;;;19.70;74.10;;;;;;4991011;28;20096;-88
2021/05/10 13:01:25;;;;;;;3.20;2.45;;;19.70;73.90;;;;;;4989068;28;20135;-89